createdAt,value
2022-11-29T18:50:31.178Z,10.32
2022-11-29T18:52:58.471Z,9.88
2022-11-29T18:55:25.272Z,10.65
2022-11-29T18:57:52.891Z,10.65
2022-11-29T19:00:19.866Z,10.83
2022-11-29T19:02:46.456Z,10.05
2022-11-29T19:05:13.374Z,11.35
2022-11-29T19:07:40.035Z,10.23
2022-11-29T19:10:06.919Z,11.27
2022-11-29T19:12:33.402Z,10.82
2022-11-29T19:14:59.922Z,10.68
2022-11-29T19:17:26.398Z,11.73
2022-11-29T19:19:52.929Z,11.55
2022-11-29T19:22:19.459Z,10.98
2022-11-29T19:24:46.182Z,10.52
2022-11-29T19:27:12.973Z,11.40
2022-11-29T19:29:45.844Z,11.57
2022-11-29T19:32:12.463Z,10.70
2022-11-29T19:34:38.962Z,11.30
2022-11-29T19:37:05.738Z,11.35
2022-11-29T19:39:33.909Z,11.05
2022-11-29T19:42:00.370Z,11.60
2022-11-29T19:44:30.002Z,11.68
2022-11-29T19:46:56.761Z,11.23
2022-11-29T19:49:23.210Z,11.07
2022-11-29T19:51:49.776Z,11.40
2022-11-29T19:54:16.274Z,11.93
2022-11-29T19:56:42.854Z,13.10
2022-11-29T19:59:09.360Z,11.80
2022-11-29T20:01:41.826Z,11.55
2022-11-29T20:04:09.204Z,11.30
2022-11-29T20:06:35.810Z,11.13
2022-11-29T20:09:02.849Z,11.38
2022-11-29T20:11:30.018Z,10.90
2022-11-29T20:14:00.712Z,10.30
2022-11-29T20:16:27.862Z,10.68
2022-11-29T20:18:54.648Z,10.38
2022-11-29T20:21:44.234Z,11.18
2022-11-29T20:24:11.646Z,12.00
2022-11-29T20:29:06.392Z,11.18
2022-11-29T20:31:33.521Z,12.27
2022-11-29T20:34:00.421Z,12.27
2022-11-29T20:36:39.889Z,12.73
2022-11-29T20:39:24.982Z,11.93
2022-11-29T20:41:51.417Z,13.63
2022-11-29T20:44:23.895Z,12.85
2022-11-29T20:46:51.004Z,13.38
2022-11-29T20:49:18.142Z,13.55
2022-11-29T20:51:49.512Z,12.63
2022-11-29T20:54:17.414Z,13.18
2022-11-29T20:56:43.877Z,12.82
2022-11-29T20:59:10.550Z,12.75
2022-11-29T21:01:37.035Z,12.95
2022-11-29T21:04:03.627Z,13.20
2022-11-29T21:06:30.302Z,13.07
2022-11-29T21:08:56.783Z,13.13
2022-11-29T21:11:24.027Z,12.70
2022-11-29T21:13:50.612Z,13.48
2022-11-29T21:16:17.401Z,13.18
2022-11-29T21:18:44.035Z,14.38
2022-11-29T21:21:39.652Z,12.85
2022-11-29T21:24:21.127Z,13.57
2022-11-29T21:26:50.531Z,12.50
2022-11-29T21:29:17.323Z,14.20
2022-11-29T21:31:44.247Z,13.23
2022-11-29T21:34:11.039Z,13.82
2022-11-29T21:36:38.110Z,13.55
2022-11-29T21:39:07.944Z,13.80
2022-11-29T21:41:34.519Z,13.35
2022-11-29T21:44:08.742Z,13.75
2022-11-29T21:46:35.510Z,13.98
2022-11-29T21:49:02.049Z,14.13
2022-11-29T21:51:28.527Z,14.15
2022-11-29T21:53:55.021Z,15.02
2022-11-29T21:56:21.494Z,14.05
2022-11-29T21:58:48.034Z,14.65
2022-11-29T22:01:15.929Z,15.32
2022-11-29T22:03:42.749Z,14.80
2022-11-29T22:06:13.652Z,15.52
2022-11-29T22:08:41.224Z,17.63
2022-11-29T22:11:09.366Z,17.85
2022-11-29T22:13:37.020Z,16.40
2022-11-29T22:16:07.945Z,15.00
2022-11-29T22:18:36.308Z,15.32
2022-11-29T22:21:04.217Z,14.35
2022-11-29T22:23:32.418Z,14.88
2022-11-29T22:26:06.533Z,15.20
2022-11-29T22:28:33.916Z,14.63
2022-11-29T22:31:10.922Z,12.77
2022-11-29T22:33:37.801Z,12.98
2022-11-29T22:36:05.309Z,13.63
2022-11-29T22:38:32.332Z,13.17
2022-11-29T22:40:59.777Z,13.68
2022-11-29T22:43:26.445Z,14.23
2022-11-29T22:45:53.088Z,14.15
2022-11-29T22:48:19.598Z,14.18
2022-11-29T22:50:46.079Z,15.07
2022-11-29T22:53:12.806Z,13.65
2022-11-29T22:55:39.613Z,14.52
2022-11-29T22:58:06.068Z,14.68
2022-11-29T23:00:35.136Z,14.75
2022-11-29T23:03:02.004Z,14.90
2022-11-29T23:05:32.259Z,16.08
2022-11-29T23:07:59.235Z,14.60
2022-11-29T23:10:28.337Z,16.02
2022-11-29T23:12:56.626Z,16.20
2022-11-29T23:15:23.382Z,16.13
2022-11-29T23:17:50.033Z,15.15
2022-11-29T23:20:16.840Z,16.17
2022-11-29T23:22:43.425Z,16.77
2022-11-29T23:25:09.924Z,17.25
2022-11-29T23:27:36.400Z,16.75
2022-11-29T23:30:02.923Z,16.88
2022-11-29T23:32:29.406Z,18.02
